Time;durP1;ratioP1;P1;durP2;ratioP2;P2;SDS_P1;SDS_P2;PMS_P1;PMS_P2;Temp;Humidity;BMP_temperature;BMP_pressure;BME280_temperature;BME280_humidity;BME280_pressure;Samples;Min_cycle;Max_cycle;Signal;HPM_P1;HPM_P2
2021/11/10 00:05:09;;;;;;;3.90;3.38;;;22.20;60.40;;;;;;31501502;28;20051;-43
2021/11/10 00:20:12;;;;;;;4.13;3.25;;;22.10;60.40;;;;;;31500983;28;20041;-39
2021/11/10 00:35:14;;;;;;;5.13;3.97;;;22.10;60.30;;;;;;31511796;28;20099;-39
2021/11/10 00:50:16;;;;;;;3.40;3.10;;;22.10;60.60;;;;;;31520296;28;20067;-40
2021/11/10 01:05:18;;;;;;;4.10;3.65;;;22.10;60.70;;;;;;31519806;28;20100;-41
2021/11/10 01:20:21;;;;;;;3.75;3.30;;;22.00;60.60;;;;;;31517783;28;20052;-40
2021/11/10 01:35:23;;;;;;;3.92;3.25;;;22.00;60.50;;;;;;31516175;28;20045;-40
2021/11/10 01:50:25;;;;;;;4.25;3.00;;;22.00;60.60;;;;;;31512842;28;20067;-41
2021/11/10 02:05:28;;;;;;;3.13;2.75;;;21.90;60.70;;;;;;31512470;28;20079;-43
2021/11/10 02:20:34;;;;;;;4.28;3.10;;;22.00;60.60;;;;;;31511304;28;20051;-40
2021/11/10 02:35:36;;;;;;;4.80;2.70;;;22.00;60.80;;;;;;31491385;28;20099;-41
2021/11/10 02:50:38;;;;;;;3.10;2.80;;;21.90;60.80;;;;;;31506470;28;20064;-40
2021/11/10 03:05:46;;;;;;;5.10;2.22;;;21.90;61.00;;;;;;31506203;28;20101;-41
2021/11/10 03:20:48;;;;;;;3.03;2.42;;;21.90;60.90;;;;;;31504656;28;20040;-41
2021/11/10 03:35:50;;;;;;;3.17;2.50;;;21.90;60.90;;;;;;31503589;28;20041;-40
2021/11/10 03:50:52;;;;;;;2.78;2.15;;;21.90;61.00;;;;;;31502328;28;20068;-40
2021/11/10 04:05:54;;;;;;;2.40;2.20;;;21.90;61.00;;;;;;31507719;28;20096;-42
2021/11/10 04:20:56;;;;;;;2.20;2.00;;;21.80;61.20;;;;;;31524483;28;20065;-41
2021/11/10 04:35:58;;;;;;;2.60;2.20;;;21.80;61.00;;;;;;31521934;28;20505;-40
2021/11/10 04:51:00;;;;;;;2.22;2.00;;;21.80;61.10;;;;;;31521026;28;20073;-41
2021/11/10 05:06:02;;;;;;;2.00;1.80;;;21.80;61.20;;;;;;31520211;28;20041;-41
2021/11/10 05:21:05;;;;;;;2.55;1.80;;;21.80;61.30;;;;;;31517739;28;20051;-41
2021/11/10 05:36:07;;;;;;;10.88;3.40;;;21.70;61.00;;;;;;31513790;28;20065;-44
2021/11/10 05:51:10;;;;;;;7.57;2.83;;;21.50;60.70;;;;;;31513896;28;20074;-41
2021/11/10 06:06:12;;;;;;;6.07;3.35;;;21.50;58.40;;;;;;31486740;28;20125;-41
2021/11/10 06:21:14;;;;;;;9.38;3.60;;;21.30;57.80;;;;;;31383846;28;20056;-38
2021/11/10 06:36:16;;;;;;;16.17;4.07;;;21.40;59.00;;;;;;31423555;28;20076;-39
2021/11/10 06:51:19;;;;;;;24.48;17.33;;;21.40;58.30;;;;;;31364378;28;20125;-39
2021/11/10 07:06:21;;;;;;;22.88;15.40;;;21.30;57.90;;;;;;31014121;28;10000193;-37
2021/11/10 07:21:23;;;;;;;21.33;13.02;;;21.40;57.80;;;;;;31366639;28;20049;-37
2021/11/10 07:36:26;;;;;;;53.28;42.00;;;21.30;57.60;;;;;;31363316;28;20113;-35
2021/11/10 07:51:29;;;;;;;31.77;20.90;;;21.00;52.50;;;;;;31387274;28;20042;-35
2021/11/10 08:06:31;;;;;;;63.90;44.60;;;21.20;49.40;;;;;;31385478;28;20045;-39
2021/11/10 08:21:34;;;;;;;45.35;32.55;;;20.60;48.90;;;;;;31383858;28;20071;-38
2021/11/10 08:36:36;;;;;;;37.92;26.70;;;21.00;51.30;;;;;;31382114;28;20111;-37
2021/11/10 08:51:39;;;;;;;61.60;44.55;;;21.00;51.80;;;;;;31380032;28;20100;-38
2021/11/10 09:06:41;;;;;;;42.22;32.05;;;21.10;50.70;;;;;;31501753;28;20053;-37
2021/11/10 09:21:43;;;;;;;49.25;32.35;;;21.30;52.30;;;;;;31462145;28;20062;-43
2021/11/10 09:36:49;;;;;;;41.25;27.80;;;21.10;53.10;;;;;;31431688;28;20121;-43
2021/11/10 09:51:51;;;;;;;39.22;26.20;;;21.00;53.10;;;;;;31494315;28;20136;-36
2021/11/10 10:06:56;;;;;;;36.15;23.70;;;21.10;53.50;;;;;;31375182;28;20080;-39
2021/11/10 10:22:02;;;;;;;31.88;22.63;;;21.20;54.10;;;;;;31366600;28;20053;-38
2021/11/10 10:37:04;;;;;;;32.60;20.73;;;21.30;54.50;;;;;;31365141;28;20050;-36
2021/11/10 10:52:19;;;;;;;39.47;29.92;;;21.20;53.50;;;;;;31379441;28;20061;-37
2021/11/10 11:07:29;;;;;;;37.78;25.40;;;21.00;54.40;;;;;;31242120;28;20046;-45
2021/11/10 11:22:38;;;;;;;32.83;24.30;;;21.30;54.30;;;;;;31240233;28;20069;-38
2021/11/10 11:37:41;;;;;;;30.60;12.20;;;20.80;54.60;;;;;;31244652;28;20358;-43
2021/11/10 11:52:45;;;;;;;41.58;24.02;;;20.60;44.10;;;;;;31243761;28;20041;-38
2021/11/10 12:07:54;;;;;;;60.35;38.10;;;20.90;49.80;;;;;;31364529;28;20045;-39
2021/11/10 12:23:00;;;;;;;87.35;53.38;;;20.90;50.80;;;;;;31374417;28;20045;-37
2021/11/10 12:38:12;;;;;;;66.25;47.50;;;21.10;50.70;;;;;;31385122;28;20069;-44
2021/11/10 12:53:33;;;;;;;56.65;38.65;;;21.60;48.80;;;;;;31378312;28;20101;-42
2021/11/10 13:24:28;;;;;;;39.05;29.25;;;22.10;50.10;;;;;;31368437;28;20081;-38
2021/11/10 13:39:30;;;;;;;37.28;25.35;;;21.90;48.40;;;;;;31373377;28;20076;-42
2021/11/10 13:54:36;;;;;;;58.78;41.13;;;21.70;49.10;;;;;;31373235;28;20063;-37
2021/11/10 14:09:48;;;;;;;44.40;32.90;;;21.70;52.10;;;;;;31371787;28;20525;-38
2021/11/10 14:24:51;;;;;;;35.50;24.75;;;21.60;51.30;;;;;;31376298;28;20052;-37
2021/11/10 14:39:53;;;;;;;32.97;20.33;;;21.50;51.00;;;;;;31460862;28;20045;-42
2021/11/10 14:54:56;;;;;;;28.73;19.20;;;21.80;49.60;;;;;;31489666;28;20045;-37
2021/11/10 15:10:18;;;;;;;23.13;17.42;;;22.30;50.10;;;;;;31488479;28;20076;-44
2021/11/10 15:25:23;;;;;;;37.42;26.73;;;22.20;51.20;;;;;;31487266;28;20679;-40
2021/11/10 15:40:25;;;;;;;34.00;23.75;;;22.00;50.50;;;;;;31386837;28;20080;-39
2021/11/10 15:55:27;;;;;;;34.55;22.58;;;22.00;51.80;;;;;;31372632;28;20413;-39
2021/11/10 16:10:29;;;;;;;33.80;20.35;;;21.90;52.00;;;;;;31395261;28;20045;-37
2021/11/10 16:25:31;;;;;;;35.45;21.77;;;21.90;52.60;;;;;;31397004;28;20108;-36
2021/11/10 16:40:33;;;;;;;38.78;19.70;;;22.00;53.10;;;;;;31397647;28;20069;-36
2021/11/10 16:55:39;;;;;;;35.97;19.17;;;22.40;54.60;;;;;;31461471;28;20040;-40
2021/11/10 17:10:41;;;;;;;26.45;18.42;;;22.80;56.50;;;;;;31405180;28;20048;-44
2021/11/10 17:25:43;;;;;;;28.35;17.15;;;22.70;56.90;;;;;;31499438;28;20076;-44
2021/11/10 17:40:46;;;;;;;29.45;17.52;;;22.50;58.00;;;;;;31076595;28;10000578;-42
2021/11/10 17:55:49;;;;;;;33.22;16.52;;;22.30;57.10;;;;;;31484849;28;20084;-43
2021/11/10 18:10:52;;;;;;;37.53;16.77;;;22.20;57.70;;;;;;31442790;28;20045;-44
2021/11/10 18:25:54;;;;;;;31.52;17.15;;;22.10;57.40;;;;;;31366861;28;20526;-42
2021/11/10 18:40:56;;;;;;;28.08;16.08;;;22.00;56.90;;;;;;31320257;28;20061;-42
2021/11/10 18:56:00;;;;;;;28.67;14.23;;;22.20;55.30;;;;;;31319780;28;20072;-42
2021/11/10 19:26:04;;;;;;;29.30;12.88;;;22.60;55.60;;;;;;31255844;28;20421;-40
2021/11/10 19:41:06;;;;;;;18.48;11.60;;;22.70;58.10;;;;;;30969401;28;10000577;-40
2021/11/10 19:56:08;;;;;;;16.33;9.18;;;22.50;58.30;;;;;;31363496;28;20068;-42
2021/11/10 20:11:12;;;;;;;16.67;9.18;;;22.50;58.60;;;;;;31352871;28;20049;-40
2021/11/10 20:26:15;;;;;;;17.33;9.32;;;22.50;59.00;;;;;;31370895;28;20049;-36
2021/11/10 20:41:18;;;;;;;17.52;9.13;;;22.40;58.40;;;;;;31368966;28;20054;-40
2021/11/10 20:56:20;;;;;;;12.63;8.30;;;22.30;58.30;;;;;;31386916;28;20041;-41
2021/11/10 21:11:24;;;;;;;13.85;8.95;;;22.30;58.40;;;;;;31388242;28;20076;-43
2021/11/10 21:26:26;;;;;;;34.53;22.83;;;22.20;58.40;;;;;;31388991;28;20072;-37
2021/11/10 21:41:28;;;;;;;30.70;20.77;;;22.30;57.40;;;;;;31389193;28;20046;-37
2021/11/10 21:56:32;;;;;;;27.35;19.08;;;22.30;57.40;;;;;;31387021;28;20049;-42
2021/11/10 22:11:35;;;;;;;28.25;18.98;;;22.40;57.60;;;;;;31383303;28;20060;-43
2021/11/10 22:26:38;;;;;;;32.22;18.10;;;22.40;57.70;;;;;;31379310;28;20069;-40
2021/11/10 22:41:40;;;;;;;69.45;17.85;;;22.20;57.50;;;;;;31376799;28;20084;-39
2021/11/10 22:56:42;;;;;;;20.33;15.32;;;22.40;58.10;;;;;;31378728;28;20052;-41
2021/11/10 23:11:44;;;;;;;20.10;15.13;;;22.30;57.80;;;;;;31376534;28;20046;-39
2021/11/10 23:26:47;;;;;;;19.55;12.60;;;22.30;57.80;;;;;;31375116;28;20052;-38
2021/11/10 23:41:49;;;;;;;16.65;11.98;;;22.30;57.80;;;;;;31373690;28;20065;-37
2021/11/10 23:56:51;;;;;;;14.48;11.55;;;22.90;57.50;;;;;;31373252;28;20065;-39
